Time;durP1;ratioP1;P1;durP2;ratioP2;P2;SDS_P1;SDS_P2;PMS_P1;PMS_P2;Temp;Humidity;BMP_temperature;BMP_pressure;BME280_temperature;BME280_humidity;BME280_pressure;Samples;Min_cycle;Max_cycle;Signal;HPM_P1;HPM_P2
2022/10/26 00:01:14;;;;;;;5.15;2.50;;;;;;;;;;4930768;28;20035;-70
2022/10/26 00:03:42;;;;;;;4.95;2.63;;;;;;;;;;4931536;28;20035;-67
2022/10/26 00:06:16;;;;;;;5.63;2.60;;;;;;;;;;4945655;28;20154;-67
2022/10/26 00:08:43;;;;;;;8.00;3.60;;;;;;;;;;4945198;28;20503;-67
2022/10/26 00:11:10;;;;;;;5.80;2.85;;;;;;;;;;4946605;28;20055;-66
2022/10/26 00:13:37;;;;;;;7.53;3.72;;;;;;;;;;4944075;28;20423;-66
2022/10/26 00:16:11;;;;;;;12.27;3.95;;;;;;;;;;4945178;28;20134;-66
2022/10/26 00:18:38;;;;;;;12.43;5.30;;;;;;;;;;4943188;28;20454;-66
2022/10/26 00:21:05;;;;;;;6.93;3.90;;;;;;;;;;4947502;28;20118;-67
2022/10/26 00:23:32;;;;;;;8.45;3.95;;;;;;;;;;4945670;28;20668;-67
2022/10/26 00:25:59;;;;;;;7.38;4.13;;;;;;;;;;4945512;28;20081;-68
2022/10/26 00:28:26;;;;;;;6.65;3.60;;;;;;;;;;4945559;28;20117;-67
2022/10/26 00:30:53;;;;;;;32.20;11.38;;;;;;;;;;4945611;28;20059;-68
2022/10/26 00:33:20;;;;;;;20.40;7.35;;;;;;;;;;4946092;28;20095;-70
2022/10/26 00:35:55;;;;;;;7.15;4.40;;;;;;;;;;4946069;28;20039;-68
2022/10/26 00:38:22;;;;;;;8.05;3.83;;;;;;;;;;4946818;28;20518;-71
2022/10/26 00:40:49;;;;;;;6.25;3.60;;;;;;;;;;4931442;28;20114;-68
2022/10/26 00:43:36;;;;;;;8.05;3.60;;;;;;;;;;4963967;28;20050;-68
2022/10/26 00:46:05;;;;;;;8.38;3.90;;;;;;;;;;4965016;28;20290;-68
2022/10/26 00:48:37;;;;;;;10.80;3.80;;;;;;;;;;4942207;28;20496;-68
2022/10/26 00:51:06;;;;;;;6.38;3.45;;;;;;;;;;4931894;28;20047;-69
2022/10/26 00:53:33;;;;;;;9.15;3.13;;;;;;;;;;4930851;28;20044;-68
2022/10/26 00:56:01;;;;;;;5.95;3.40;;;;;;;;;;4932452;28;20110;-67
2022/10/26 00:58:27;;;;;;;6.32;3.42;;;;;;;;;;4926324;28;20039;-68
2022/10/26 01:00:54;;;;;;;6.13;3.53;;;;;;;;;;4931451;28;20044;-66
2022/10/26 01:03:24;;;;;;;5.30;3.38;;;;;;;;;;4930763;28;20471;-68
2022/10/26 01:05:50;;;;;;;6.55;3.60;;;;;;;;;;4927833;28;20127;-67
2022/10/26 01:08:18;;;;;;;7.40;3.50;;;;;;;;;;4913076;29;20119;-67
2022/10/26 01:10:45;;;;;;;5.63;3.20;;;;;;;;;;4924686;28;20043;-67
2022/10/26 01:13:12;;;;;;;6.55;4.10;;;;;;;;;;4931982;28;20039;-67
2022/10/26 01:15:57;;;;;;;9.07;3.67;;;;;;;;;;4913382;28;20047;-68
2022/10/26 01:18:37;;;;;;;7.32;3.60;;;;;;;;;;4910996;29;20051;-66
2022/10/26 01:21:13;;;;;;;5.47;3.42;;;;;;;;;;4911414;28;20524;-64
2022/10/26 01:23:46;;;;;;;5.93;3.70;;;;;;;;;;4915182;29;21068;-67
2022/10/26 01:26:12;;;;;;;8.53;3.83;;;;;;;;;;4912396;28;20108;-67
2022/10/26 01:28:57;;;;;;;8.80;3.65;;;;;;;;;;4919452;28;20309;-67
2022/10/26 01:31:28;;;;;;;6.30;3.50;;;;;;;;;;4942864;28;20130;-69
2022/10/26 01:34:20;;;;;;;7.00;4.20;;;;;;;;;;4930450;28;20058;-66
2022/10/26 01:36:57;;;;;;;5.80;3.53;;;;;;;;;;4928010;28;20058;-66
2022/10/26 01:39:36;;;;;;;7.50;4.30;;;;;;;;;;4928216;28;20411;-67
2022/10/26 01:42:04;;;;;;;9.23;3.72;;;;;;;;;;4931058;28;20415;-66
2022/10/26 01:44:43;;;;;;;8.50;4.50;;;;;;;;;;4926193;28;20039;-65
2022/10/26 01:47:11;;;;;;;7.20;4.60;;;;;;;;;;4943535;28;20040;-66
2022/10/26 01:49:42;;;;;;;9.98;5.15;;;;;;;;;;4927313;28;20050;-66
2022/10/26 01:52:09;;;;;;;7.80;5.00;;;;;;;;;;4929578;28;20078;-66
2022/10/26 01:54:36;;;;;;;7.43;4.68;;;;;;;;;;4927183;28;20134;-66
2022/10/26 01:57:05;;;;;;;10.65;5.00;;;;;;;;;;4928808;28;20047;-66
2022/10/26 01:59:37;;;;;;;8.07;5.13;;;;;;;;;;4927404;28;20043;-65
2022/10/26 02:02:19;;;;;;;7.17;4.83;;;;;;;;;;4929640;28;20054;-65
2022/10/26 02:04:46;;;;;;;10.05;6.07;;;;;;;;;;4928429;28;20040;-66
2022/10/26 02:07:26;;;;;;;8.95;6.15;;;;;;;;;;4931003;28;20070;-66
2022/10/26 02:10:13;;;;;;;9.13;6.15;;;;;;;;;;4930112;28;20035;-67
2022/10/26 02:12:49;;;;;;;9.65;6.63;;;;;;;;;;4928779;28;20059;-65
2022/10/26 02:15:42;;;;;;;10.27;6.68;;;;;;;;;;4928997;28;20035;-66
2022/10/26 02:18:29;;;;;;;9.88;6.63;;;;;;;;;;4921377;28;20186;-66
2022/10/26 02:20:59;;;;;;;11.63;6.63;;;;;;;;;;4928348;28;20143;-66
2022/10/26 02:23:26;;;;;;;13.43;7.30;;;;;;;;;;4928572;28;20048;-66
2022/10/26 02:25:56;;;;;;;10.98;7.63;;;;;;;;;;4928132;28;20546;-66
2022/10/26 02:28:27;;;;;;;9.95;7.53;;;;;;;;;;4943654;28;20047;-65
2022/10/26 02:30:56;;;;;;;13.20;8.02;;;;;;;;;;4929670;28;20131;-66
2022/10/26 02:33:24;;;;;;;10.32;7.75;;;;;;;;;;4929494;28;20476;-66
2022/10/26 02:35:52;;;;;;;11.10;8.13;;;;;;;;;;4929126;28;20039;-66
2022/10/26 02:38:19;;;;;;;12.90;8.05;;;;;;;;;;4929039;28;20129;-69
2022/10/26 02:40:47;;;;;;;10.88;7.38;;;;;;;;;;4927734;28;20047;-66
2022/10/26 02:43:15;;;;;;;11.40;7.90;;;;;;;;;;4929233;28;20048;-66
2022/10/26 02:45:44;;;;;;;14.15;7.60;;;;;;;;;;4927050;28;20043;-66
2022/10/26 02:48:10;;;;;;;13.07;7.15;;;;;;;;;;4927211;28;20520;-67
2022/10/26 02:50:51;;;;;;;12.95;7.50;;;;;;;;;;4927066;28;20047;-67
2022/10/26 02:53:23;;;;;;;11.15;7.00;;;;;;;;;;4929439;28;20059;-66
2022/10/26 02:55:51;;;;;;;10.67;6.60;;;;;;;;;;4929167;28;20044;-67
2022/10/26 02:58:24;;;;;;;13.52;7.28;;;;;;;;;;4945848;28;20071;-67
2022/10/26 03:00:51;;;;;;;11.57;7.13;;;;;;;;;;4929943;28;20134;-66
2022/10/26 03:03:18;;;;;;;10.85;7.78;;;;;;;;;;4933242;28;20448;-67
2022/10/26 03:05:44;;;;;;;11.02;7.00;;;;;;;;;;4944584;28;20067;-66
2022/10/26 03:08:11;;;;;;;10.77;7.28;;;;;;;;;;4930700;28;20078;-67
2022/10/26 03:10:41;;;;;;;11.82;7.13;;;;;;;;;;4930376;28;20182;-66
2022/10/26 03:13:07;;;;;;;10.85;7.32;;;;;;;;;;4933807;28;20039;-66
2022/10/26 03:15:34;;;;;;;13.57;8.13;;;;;;;;;;4930846;28;20102;-66
2022/10/26 03:18:01;;;;;;;12.07;7.93;;;;;;;;;;4931683;28;20074;-66
2022/10/26 03:20:27;;;;;;;12.43;8.05;;;;;;;;;;4929190;28;20044;-66
2022/10/26 03:22:55;;;;;;;10.48;7.35;;;;;;;;;;4930975;28;20115;-68
2022/10/26 03:25:23;;;;;;;11.98;7.82;;;;;;;;;;4944895;28;20086;-72
2022/10/26 03:27:59;;;;;;;13.73;8.57;;;;;;;;;;4944935;28;20506;-65
2022/10/26 03:30:26;;;;;;;14.82;8.77;;;;;;;;;;4929878;28;20039;-67
2022/10/26 03:32:53;;;;;;;17.73;10.50;;;;;;;;;;4945443;28;20072;-66
2022/10/26 03:35:20;;;;;;;15.00;10.30;;;;;;;;;;4931873;28;20546;-66
2022/10/26 03:37:47;;;;;;;18.80;11.02;;;;;;;;;;4922153;28;20043;-67
2022/10/26 03:40:13;;;;;;;14.13;9.38;;;;;;;;;;4929515;28;20326;-66
2022/10/26 03:42:40;;;;;;;16.90;10.90;;;;;;;;;;4928935;28;20039;-67
2022/10/26 03:45:07;;;;;;;16.58;10.45;;;;;;;;;;4930660;28;20035;-66
2022/10/26 03:47:34;;;;;;;16.45;10.80;;;;;;;;;;4930159;28;20079;-65
2022/10/26 03:50:00;;;;;;;17.20;10.23;;;;;;;;;;4929722;28;20119;-67
2022/10/26 03:52:27;;;;;;;13.43;9.38;;;;;;;;;;4929837;28;20052;-65
2022/10/26 03:54:53;;;;;;;16.52;10.93;;;;;;;;;;4946374;28;20520;-65
2022/10/26 03:57:20;;;;;;;17.00;10.98;;;;;;;;;;4929942;28;20195;-65
2022/10/26 03:59:47;;;;;;;14.35;10.07;;;;;;;;;;4929832;28;20055;-67
2022/10/26 04:02:14;;;;;;;15.38;10.13;;;;;;;;;;4931144;28;20127;-66
2022/10/26 04:04:40;;;;;;;13.93;9.55;;;;;;;;;;4945110;28;20094;-67
2022/10/26 04:07:07;;;;;;;18.85;9.85;;;;;;;;;;4929292;28;20047;-66
2022/10/26 04:09:33;;;;;;;18.88;11.18;;;;;;;;;;4929633;28;20051;-66
2022/10/26 04:12:00;;;;;;;15.07;10.57;;;;;;;;;;4930160;28;20052;-67
2022/10/26 04:14:26;;;;;;;17.67;12.32;;;;;;;;;;4930151;28;20937;-65
2022/10/26 04:16:53;;;;;;;18.25;11.98;;;;;;;;;;4931026;28;20047;-67
2022/10/26 04:19:20;;;;;;;19.15;12.38;;;;;;;;;;4928817;28;20130;-68
2022/10/26 04:21:46;;;;;;;24.67;11.15;;;;;;;;;;4929623;28;20882;-67
2022/10/26 04:24:13;;;;;;;17.17;11.32;;;;;;;;;;4930131;28;20039;-65
2022/10/26 04:26:39;;;;;;;18.95;12.50;;;;;;;;;;4931779;28;20095;-64
2022/10/26 04:29:08;;;;;;;18.67;11.50;;;;;;;;;;4930264;28;20751;-64
2022/10/26 04:31:34;;;;;;;19.55;11.50;;;;;;;;;;4930678;28;20508;-66
2022/10/26 04:34:01;;;;;;;18.27;12.23;;;;;;;;;;4931106;28;20065;-66
2022/10/26 04:36:27;;;;;;;18.92;11.95;;;;;;;;;;4931623;28;20051;-65
2022/10/26 04:38:54;;;;;;;19.27;12.80;;;;;;;;;;4929811;28;20106;-65
2022/10/26 04:41:20;;;;;;;19.00;12.52;;;;;;;;;;4932234;28;20036;-66
2022/10/26 04:43:47;;;;;;;19.38;12.57;;;;;;;;;;4932121;28;20035;-65
2022/10/26 04:46:14;;;;;;;21.52;12.95;;;;;;;;;;4931954;28;20518;-65
2022/10/26 04:48:40;;;;;;;18.27;12.60;;;;;;;;;;4929482;28;20122;-66
2022/10/26 04:51:07;;;;;;;21.08;12.30;;;;;;;;;;4930119;28;20503;-66
2022/10/26 04:53:34;;;;;;;19.15;11.93;;;;;;;;;;4929481;28;20075;-66
2022/10/26 04:56:01;;;;;;;21.08;13.82;;;;;;;;;;4930744;28;20036;-65
2022/10/26 04:58:28;;;;;;;23.40;13.25;;;;;;;;;;4928841;28;20044;-65
2022/10/26 05:00:55;;;;;;;24.50;13.52;;;;;;;;;;4931019;28;20285;-65
2022/10/26 05:03:21;;;;;;;22.10;13.63;;;;;;;;;;4929965;28;20039;-65
2022/10/26 05:05:48;;;;;;;19.67;13.10;;;;;;;;;;4930568;28;20066;-65
2022/10/26 05:08:14;;;;;;;22.40;13.82;;;;;;;;;;4930295;28;20035;-65
2022/10/26 05:10:41;;;;;;;23.70;13.48;;;;;;;;;;4929796;28;20045;-66
2022/10/26 05:13:09;;;;;;;22.30;13.95;;;;;;;;;;4928982;28;20126;-65
2022/10/26 05:15:35;;;;;;;23.92;13.57;;;;;;;;;;4928612;28;20054;-65
2022/10/26 05:18:04;;;;;;;20.65;13.88;;;;;;;;;;4928347;28;20049;-65
2022/10/26 05:20:32;;;;;;;21.05;13.68;;;;;;;;;;4928954;28;20051;-66
2022/10/26 05:22:59;;;;;;;22.88;13.80;;;;;;;;;;4929389;28;20043;-65
2022/10/26 05:25:27;;;;;;;22.08;14.02;;;;;;;;;;4928717;28;20059;-66
2022/10/26 05:28:03;;;;;;;23.63;14.65;;;;;;;;;;4928338;28;20778;-66
2022/10/26 05:30:30;;;;;;;21.40;14.23;;;;;;;;;;4928838;28;20059;-67
2022/10/26 05:32:58;;;;;;;21.40;13.00;;;;;;;;;;4925034;28;20193;-67
2022/10/26 05:35:25;;;;;;;23.10;14.13;;;;;;;;;;4943386;28;20633;-67
2022/10/26 05:37:52;;;;;;;23.58;14.93;;;;;;;;;;4943151;28;20108;-67
2022/10/26 05:40:19;;;;;;;26.08;14.88;;;;;;;;;;4929705;28;20042;-67
2022/10/26 05:42:45;;;;;;;24.30;14.73;;;;;;;;;;4929239;28;20043;-68
2022/10/26 05:45:13;;;;;;;21.02;13.45;;;;;;;;;;4929605;28;20039;-66
2022/10/26 05:47:40;;;;;;;22.20;14.45;;;;;;;;;;4928427;28;20050;-67
2022/10/26 05:50:07;;;;;;;24.35;14.77;;;;;;;;;;4928335;28;20040;-66
2022/10/26 05:52:43;;;;;;;25.33;15.00;;;;;;;;;;4941757;28;20067;-67
2022/10/26 05:55:11;;;;;;;23.92;14.75;;;;;;;;;;4927678;28;20058;-67
2022/10/26 05:57:38;;;;;;;23.13;14.30;;;;;;;;;;4928041;28;20064;-66
2022/10/26 06:00:15;;;;;;;23.52;14.95;;;;;;;;;;4927978;28;20039;-66
2022/10/26 06:03:00;;;;;;;23.23;14.60;;;;;;;;;;4928851;28;20047;-66
2022/10/26 06:05:28;;;;;;;20.88;14.07;;;;;;;;;;4942616;28;20051;-66
2022/10/26 06:07:55;;;;;;;24.30;15.13;;;;;;;;;;4927389;28;20434;-66
2022/10/26 06:10:21;;;;;;;25.05;17.10;;;;;;;;;;4926324;28;20039;-67
2022/10/26 06:12:48;;;;;;;23.40;15.02;;;;;;;;;;4941443;28;20062;-66
2022/10/26 06:15:18;;;;;;;24.00;15.68;;;;;;;;;;4928955;28;20048;-66
2022/10/26 06:17:59;;;;;;;25.42;15.90;;;;;;;;;;4927853;28;21886;-65
2022/10/26 06:20:25;;;;;;;27.67;15.63;;;;;;;;;;4926664;28;20102;-65
2022/10/26 06:23:01;;;;;;;28.20;16.23;;;;;;;;;;4927179;28;20035;-65
2022/10/26 06:25:27;;;;;;;26.05;15.93;;;;;;;;;;4928317;28;20054;-66
2022/10/26 06:28:03;;;;;;;24.90;15.32;;;;;;;;;;4928289;28;20051;-65
2022/10/26 06:30:30;;;;;;;24.42;16.25;;;;;;;;;;4927906;28;20519;-66
2022/10/26 06:32:58;;;;;;;24.58;15.35;;;;;;;;;;4946956;28;20074;-67
2022/10/26 06:35:44;;;;;;;25.60;16.38;;;;;;;;;;4931577;28;20047;-66
2022/10/26 06:38:17;;;;;;;28.08;15.02;;;;;;;;;;4931310;28;20059;-65
2022/10/26 06:40:46;;;;;;;25.10;16.48;;;;;;;;;;4931207;28;20093;-66
2022/10/26 06:43:16;;;;;;;26.35;15.00;;;;;;;;;;4945984;28;20141;-66
2022/10/26 06:45:45;;;;;;;24.02;14.90;;;;;;;;;;4947772;28;20768;-66
2022/10/26 06:48:16;;;;;;;25.80;15.50;;;;;;;;;;4930651;28;20067;-68
2022/10/26 06:51:00;;;;;;;24.70;15.82;;;;;;;;;;4930543;28;20043;-69
2022/10/26 06:53:39;;;;;;;31.10;15.80;;;;;;;;;;4945451;28;20046;-66
2022/10/26 06:56:05;;;;;;;27.60;16.15;;;;;;;;;;4933817;28;20039;-65
2022/10/26 06:58:36;;;;;;;26.92;15.48;;;;;;;;;;4944105;28;20048;-65
2022/10/26 07:01:03;;;;;;;29.25;16.65;;;;;;;;;;4946028;28;20051;-66
2022/10/26 07:03:29;;;;;;;27.45;16.70;;;;;;;;;;4932038;28;20508;-65
2022/10/26 07:05:56;;;;;;;23.17;14.63;;;;;;;;;;4931400;28;20175;-66
2022/10/26 07:08:23;;;;;;;30.02;16.98;;;;;;;;;;4930262;28;20150;-65
2022/10/26 07:10:49;;;;;;;30.50;16.48;;;;;;;;;;4931321;28;20086;-66
2022/10/26 07:13:16;;;;;;;27.20;16.20;;;;;;;;;;4930611;28;20031;-67
2022/10/26 07:15:43;;;;;;;30.80;16.73;;;;;;;;;;4930476;28;20081;-68
2022/10/26 07:18:09;;;;;;;30.75;17.20;;;;;;;;;;4930120;28;20108;-66
2022/10/26 07:20:37;;;;;;;28.27;16.70;;;;;;;;;;4928910;28;20048;-66
2022/10/26 07:23:05;;;;;;;31.60;17.83;;;;;;;;;;4930975;28;20039;-66
2022/10/26 07:25:33;;;;;;;27.90;16.85;;;;;;;;;;4930941;28;20039;-68
2022/10/26 07:28:00;;;;;;;26.20;16.10;;;;;;;;;;4930396;28;20645;-67
2022/10/26 07:30:30;;;;;;;28.58;17.27;;;;;;;;;;4930918;28;20043;-67
2022/10/26 07:33:00;;;;;;;30.38;17.20;;;;;;;;;;4931047;28;20161;-67
2022/10/26 07:35:27;;;;;;;27.83;16.48;;;;;;;;;;4931359;28;20119;-67
2022/10/26 07:38:00;;;;;;;29.80;17.30;;;;;;;;;;4930509;28;20059;-66
2022/10/26 07:40:27;;;;;;;28.30;17.05;;;;;;;;;;4943937;28;20054;-67
2022/10/26 07:42:56;;;;;;;28.83;16.30;;;;;;;;;;4929643;28;20284;-66
2022/10/26 07:45:23;;;;;;;26.58;15.88;;;;;;;;;;4929971;28;20480;-65
2022/10/26 07:47:50;;;;;;;29.92;17.08;;;;;;;;;;4930252;28;20043;-66
2022/10/26 07:50:17;;;;;;;29.17;17.52;;;;;;;;;;4931006;28;20130;-66
2022/10/26 07:52:43;;;;;;;27.85;15.85;;;;;;;;;;4925752;28;20138;-66
2022/10/26 07:55:11;;;;;;;30.00;16.45;;;;;;;;;;4944505;28;20035;-66
2022/10/26 07:57:38;;;;;;;25.77;16.88;;;;;;;;;;4930786;28;20711;-68
2022/10/26 08:00:05;;;;;;;30.92;16.52;;;;;;;;;;4930290;28;20055;-68
2022/10/26 08:02:32;;;;;;;25.38;15.88;;;;;;;;;;4930710;28;20155;-66
2022/10/26 08:04:59;;;;;;;28.88;15.50;;;;;;;;;;4944630;28;20043;-66
2022/10/26 08:07:26;;;;;;;28.15;17.00;;;;;;;;;;4936748;28;20978;-66
2022/10/26 08:09:52;;;;;;;31.95;17.05;;;;;;;;;;4928820;28;20123;-65
2022/10/26 08:12:19;;;;;;;26.08;16.63;;;;;;;;;;4931197;28;20051;-67
2022/10/26 08:14:46;;;;;;;29.17;16.10;;;;;;;;;;4944110;28;20039;-67
2022/10/26 08:17:13;;;;;;;28.08;15.63;;;;;;;;;;4929785;28;20059;-65
2022/10/26 08:19:39;;;;;;;28.30;15.95;;;;;;;;;;4943672;28;20054;-66
2022/10/26 08:22:06;;;;;;;27.55;15.95;;;;;;;;;;4930206;28;20063;-67
2022/10/26 08:24:33;;;;;;;23.40;13.45;;;;;;;;;;4929214;28;20047;-66
2022/10/26 08:27:00;;;;;;;23.70;14.65;;;;;;;;;;4930384;28;20515;-66
2022/10/26 08:29:27;;;;;;;22.63;13.32;;;;;;;;;;4929497;28;20555;-67
2022/10/26 08:31:53;;;;;;;23.13;13.88;;;;;;;;;;4945369;28;20055;-67
2022/10/26 08:34:20;;;;;;;27.02;14.40;;;;;;;;;;4929084;28;20499;-67
2022/10/26 08:36:49;;;;;;;26.10;13.32;;;;;;;;;;4929363;28;20040;-67
2022/10/26 08:39:16;;;;;;;24.80;14.55;;;;;;;;;;4930645;28;20051;-67
2022/10/26 08:41:43;;;;;;;26.13;14.57;;;;;;;;;;4929391;28;20122;-67
2022/10/26 08:44:28;;;;;;;21.10;13.05;;;;;;;;;;4944733;28;20059;-66
2022/10/26 08:46:58;;;;;;;21.75;13.15;;;;;;;;;;4928785;28;20058;-66
2022/10/26 08:49:32;;;;;;;24.38;13.15;;;;;;;;;;4944300;28;20043;-68
2022/10/26 08:52:01;;;;;;;21.95;12.90;;;;;;;;;;4944655;28;20051;-67
2022/10/26 08:54:37;;;;;;;26.15;13.93;;;;;;;;;;4929226;28;20043;-67
2022/10/26 08:57:16;;;;;;;22.73;11.82;;;;;;;;;;4929643;28;20043;-66
2022/10/26 09:00:00;;;;;;;23.65;11.35;;;;;;;;;;4941829;28;20411;-66
2022/10/26 09:02:27;;;;;;;23.52;11.25;;;;;;;;;;4928926;28;20051;-66
2022/10/26 09:04:54;;;;;;;19.48;10.85;;;;;;;;;;4929376;28;20075;-66
2022/10/26 09:07:21;;;;;;;16.50;9.25;;;;;;;;;;4928871;28;20682;-67
2022/10/26 09:10:00;;;;;;;15.32;8.63;;;;;;;;;;4930758;28;21518;-66
2022/10/26 09:12:45;;;;;;;19.45;10.02;;;;;;;;;;4927134;28;20062;-67
2022/10/26 09:15:14;;;;;;;26.25;8.55;;;;;;;;;;4930361;28;20910;-67
2022/10/26 09:17:45;;;;;;;14.65;8.50;;;;;;;;;;4928046;28;20059;-65
2022/10/26 09:20:25;;;;;;;19.10;9.10;;;;;;;;;;4929636;28;20551;-65
2022/10/26 09:23:04;;;;;;;18.90;7.78;;;;;;;;;;4928038;28;20043;-66
2022/10/26 09:25:34;;;;;;;15.60;6.00;;;;;;;;;;4926736;28;20051;-67
2022/10/26 09:28:02;;;;;;;17.10;6.55;;;;;;;;;;4928076;28;20583;-66
2022/10/26 09:30:29;;;;;;;14.13;5.93;;;;;;;;;;4927582;28;20057;-66
2022/10/26 09:33:14;;;;;;;10.52;5.90;;;;;;;;;;4929203;28;20038;-66
2022/10/26 09:35:44;;;;;;;9.93;4.70;;;;;;;;;;4927602;28;20214;-65
2022/10/26 09:38:14;;;;;;;16.17;4.75;;;;;;;;;;4927800;28;20059;-65
2022/10/26 09:40:41;;;;;;;9.80;4.90;;;;;;;;;;4928017;28;20035;-65
2022/10/26 09:43:18;;;;;;;12.70;5.03;;;;;;;;;;4926851;28;20054;-64
2022/10/26 09:45:47;;;;;;;8.90;4.88;;;;;;;;;;4928909;28;20063;-66
2022/10/26 09:48:16;;;;;;;12.18;4.45;;;;;;;;;;4927505;28;20484;-65
2022/10/26 09:50:45;;;;;;;8.30;4.63;;;;;;;;;;4927544;28;20039;-65
2022/10/26 09:53:12;;;;;;;9.45;4.28;;;;;;;;;;4928881;28;20047;-65
2022/10/26 09:55:41;;;;;;;7.60;4.00;;;;;;;;;;4929083;28;20560;-65
2022/10/26 09:58:13;;;;;;;8.43;4.28;;;;;;;;;;4928799;28;20047;-66
2022/10/26 10:00:41;;;;;;;8.82;4.28;;;;;;;;;;4930564;28;20054;-65
2022/10/26 10:03:24;;;;;;;9.50;3.80;;;;;;;;;;4930119;28;20053;-67
2022/10/26 10:05:51;;;;;;;8.13;3.92;;;;;;;;;;4927901;28;20130;-66
2022/10/26 10:08:22;;;;;;;12.27;3.13;;;;;;;;;;4926522;28;20487;-66
2022/10/26 10:11:03;;;;;;;7.18;3.30;;;;;;;;;;4928825;28;20040;-66
2022/10/26 10:13:34;;;;;;;8.00;3.60;;;;;;;;;;4928686;28;20097;-66
2022/10/26 10:16:03;;;;;;;7.25;3.38;;;;;;;;;;4929238;28;20043;-65
2022/10/26 10:18:30;;;;;;;9.63;3.90;;;;;;;;;;4928407;28;20753;-66
2022/10/26 10:20:58;;;;;;;9.27;3.40;;;;;;;;;;4928214;28;20160;-66
2022/10/26 10:23:47;;;;;;;7.65;2.78;;;;;;;;;;4927211;28;20044;-66
2022/10/26 10:26:14;;;;;;;8.75;3.28;;;;;;;;;;4932704;28;20046;-64
2022/10/26 10:28:41;;;;;;;8.65;3.45;;;;;;;;;;4926957;28;20059;-65
2022/10/26 10:31:19;;;;;;;7.63;3.67;;;;;;;;;;4928795;28;20066;-65
2022/10/26 10:33:46;;;;;;;6.45;3.40;;;;;;;;;;4927381;28;20043;-66
2022/10/26 10:36:18;;;;;;;5.68;2.63;;;;;;;;;;4928276;28;20105;-66
2022/10/26 10:38:46;;;;;;;6.72;3.58;;;;;;;;;;4926134;28;20130;-66
2022/10/26 10:41:17;;;;;;;8.60;3.08;;;;;;;;;;4929345;28;20935;-67
2022/10/26 10:43:48;;;;;;;5.32;2.38;;;;;;;;;;4927481;28;20492;-64
2022/10/26 10:46:20;;;;;;;11.63;2.55;;;;;;;;;;4929712;28;21154;-67
2022/10/26 10:48:48;;;;;;;7.28;3.38;;;;;;;;;;4926295;28;20523;-65
2022/10/26 10:51:18;;;;;;;10.32;3.00;;;;;;;;;;4927258;28;20077;-66
2022/10/26 10:53:48;;;;;;;5.38;2.20;;;;;;;;;;4926730;28;20044;-66
2022/10/26 10:56:32;;;;;;;5.95;2.85;;;;;;;;;;4927819;28;20044;-65
2022/10/26 10:59:17;;;;;;;6.25;2.95;;;;;;;;;;4926425;28;20052;-66
2022/10/26 11:01:48;;;;;;;6.85;2.75;;;;;;;;;;4926423;28;20047;-66
2022/10/26 11:04:21;;;;;;;6.13;2.85;;;;;;;;;;4927375;28;20411;-64
2022/10/26 11:06:48;;;;;;;9.27;3.00;;;;;;;;;;4927083;28;20055;-65
2022/10/26 11:09:24;;;;;;;8.77;2.83;;;;;;;;;;4926438;28;20778;-65
2022/10/26 11:11:53;;;;;;;7.10;2.85;;;;;;;;;;4926144;28;20051;-64
2022/10/26 11:14:20;;;;;;;8.38;2.63;;;;;;;;;;4928584;28;21449;-65
2022/10/26 11:16:50;;;;;;;11.05;2.80;;;;;;;;;;4930625;28;20130;-65
2022/10/26 11:19:20;;;;;;;3.92;1.80;;;;;;;;;;4930078;28;20205;-65
2022/10/26 11:21:48;;;;;;;7.88;2.63;;;;;;;;;;4930517;28;20055;-64
2022/10/26 11:24:18;;;;;;;5.03;2.15;;;;;;;;;;4932215;28;20131;-65
2022/10/26 11:26:45;;;;;;;5.85;1.90;;;;;;;;;;4930968;28;20050;-64
2022/10/26 11:29:20;;;;;;;6.45;1.98;;;;;;;;;;4931422;28;20496;-64
2022/10/26 11:31:50;;;;;;;5.10;2.10;;;;;;;;;;4930932;28;20047;-66
2022/10/26 11:34:26;;;;;;;6.82;2.03;;;;;;;;;;4931316;28;20058;-65
2022/10/26 11:36:56;;;;;;;7.35;1.98;;;;;;;;;;4931198;28;20515;-65
2022/10/26 11:39:36;;;;;;;10.40;2.17;;;;;;;;;;4930601;28;20935;-65
2022/10/26 11:42:13;;;;;;;5.88;1.98;;;;;;;;;;4930677;28;20035;-66
2022/10/26 11:44:43;;;;;;;11.38;2.25;;;;;;;;;;4931486;28;20669;-65
2022/10/26 11:47:17;;;;;;;4.22;1.92;;;;;;;;;;4931432;28;20117;-67
2022/10/26 11:49:50;;;;;;;6.97;1.98;;;;;;;;;;4930608;28;20047;-65
2022/10/26 11:52:24;;;;;;;9.65;2.28;;;;;;;;;;4945088;28;20079;-64
2022/10/26 11:54:51;;;;;;;5.20;2.13;;;;;;;;;;4931600;28;20443;-65
2022/10/26 11:57:17;;;;;;;4.10;1.77;;;;;;;;;;4931342;28;20188;-64
2022/10/26 11:59:49;;;;;;;3.85;1.42;;;;;;;;;;4929446;28;20052;-64
2022/10/26 12:02:25;;;;;;;6.53;1.98;;;;;;;;;;4930261;28;20039;-66
2022/10/26 12:04:58;;;;;;;4.65;1.92;;;;;;;;;;4928929;28;20043;-67
2022/10/26 12:07:31;;;;;;;6.32;1.75;;;;;;;;;;4930152;28;20035;-64
2022/10/26 12:09:59;;;;;;;8.27;2.13;;;;;;;;;;4930418;28;20046;-65
2022/10/26 12:12:31;;;;;;;4.40;2.00;;;;;;;;;;4927661;28;20047;-65
2022/10/26 12:15:10;;;;;;;6.22;2.10;;;;;;;;;;4931388;28;20047;-64
2022/10/26 12:17:46;;;;;;;5.38;1.95;;;;;;;;;;4930287;28;20094;-66
2022/10/26 12:20:18;;;;;;;7.50;2.00;;;;;;;;;;4930015;28;20051;-66
2022/10/26 12:22:45;;;;;;;4.60;1.58;;;;;;;;;;4928875;28;20430;-67
2022/10/26 12:25:15;;;;;;;7.40;1.98;;;;;;;;;;4931300;28;20925;-65
2022/10/26 12:27:41;;;;;;;6.78;2.45;;;;;;;;;;4927551;28;20047;-65
2022/10/26 12:30:08;;;;;;;9.68;2.53;;;;;;;;;;4929391;28;20043;-66
2022/10/26 12:32:34;;;;;;;6.57;2.35;;;;;;;;;;4943904;28;20048;-67
2022/10/26 12:35:02;;;;;;;11.35;2.47;;;;;;;;;;4945108;28;20039;-66
2022/10/26 12:37:33;;;;;;;7.93;2.65;;;;;;;;;;4930491;28;20586;-65
2022/10/26 12:40:18;;;;;;;10.82;2.67;;;;;;;;;;4944533;28;20047;-68
2022/10/26 12:42:45;;;;;;;5.47;2.20;;;;;;;;;;4929028;28;21663;-66
2022/10/26 12:45:30;;;;;;;5.00;2.50;;;;;;;;;;4934308;28;21256;-67
2022/10/26 12:48:00;;;;;;;9.93;2.80;;;;;;;;;;4938076;28;20047;-65
2022/10/26 12:50:27;;;;;;;7.53;2.53;;;;;;;;;;4930550;28;20043;-66
2022/10/26 12:52:54;;;;;;;10.15;2.38;;;;;;;;;;4931400;28;20276;-67
2022/10/26 12:55:20;;;;;;;6.57;2.70;;;;;;;;;;4930945;28;20053;-67
2022/10/26 12:57:50;;;;;;;10.32;2.42;;;;;;;;;;4945042;28;20043;-65
2022/10/26 13:00:18;;;;;;;6.57;2.30;;;;;;;;;;4927669;28;20043;-65
2022/10/26 13:02:54;;;;;;;12.70;3.05;;;;;;;;;;4943192;28;20492;-65
2022/10/26 13:05:36;;;;;;;7.28;2.67;;;;;;;;;;4941413;28;20071;-63
2022/10/26 13:08:05;;;;;;;7.55;2.20;;;;;;;;;;4922914;28;20404;-65
2022/10/26 13:10:32;;;;;;;11.02;2.72;;;;;;;;;;4926824;28;20043;-65
2022/10/26 13:13:05;;;;;;;8.05;2.70;;;;;;;;;;4929668;28;20376;-67
2022/10/26 13:15:37;;;;;;;6.95;2.15;;;;;;;;;;4926257;28;20058;-66
2022/10/26 13:18:06;;;;;;;13.15;2.35;;;;;;;;;;4929689;28;20096;-65
2022/10/26 13:20:34;;;;;;;10.32;2.60;;;;;;;;;;4929083;28;20043;-66
2022/10/26 13:23:01;;;;;;;7.53;2.58;;;;;;;;;;4941350;28;20042;-66
2022/10/26 13:25:29;;;;;;;6.65;2.58;;;;;;;;;;4928484;28;20074;-65
2022/10/26 13:28:05;;;;;;;8.05;2.50;;;;;;;;;;4931732;28;20051;-65
2022/10/26 13:30:37;;;;;;;7.95;2.53;;;;;;;;;;4941670;28;20040;-66
2022/10/26 13:33:07;;;;;;;8.23;2.70;;;;;;;;;;4929602;28;20142;-65
2022/10/26 13:35:34;;;;;;;6.80;2.83;;;;;;;;;;4929385;28;20096;-65
2022/10/26 13:38:06;;;;;;;11.60;2.78;;;;;;;;;;4943202;28;20044;-66
2022/10/26 13:40:36;;;;;;;7.28;3.25;;;;;;;;;;4926729;28;20500;-65
2022/10/26 13:43:04;;;;;;;8.90;3.05;;;;;;;;;;4927957;28;20696;-67
2022/10/26 13:45:32;;;;;;;7.68;3.30;;;;;;;;;;4928405;28;20043;-64
2022/10/26 13:47:59;;;;;;;7.95;3.10;;;;;;;;;;4933858;28;20086;-65
2022/10/26 13:50:28;;;;;;;8.20;3.20;;;;;;;;;;4939736;28;20177;-67
2022/10/26 13:52:56;;;;;;;9.07;3.22;;;;;;;;;;4928357;28;20119;-67
2022/10/26 13:55:26;;;;;;;13.25;3.75;;;;;;;;;;4929734;28;20868;-67
2022/10/26 13:57:55;;;;;;;14.60;3.72;;;;;;;;;;4928964;28;20047;-69
2022/10/26 14:00:22;;;;;;;8.55;3.45;;;;;;;;;;4941661;28;20122;-66
2022/10/26 14:02:49;;;;;;;8.02;3.83;;;;;;;;;;4929294;28;20491;-68
2022/10/26 14:05:17;;;;;;;8.63;3.22;;;;;;;;;;4926550;28;20042;-65
2022/10/26 14:07:56;;;;;;;13.02;4.18;;;;;;;;;;4927636;28;20046;-67
2022/10/26 14:10:28;;;;;;;10.65;4.05;;;;;;;;;;4927397;28;20503;-65
2022/10/26 14:12:55;;;;;;;10.10;3.38;;;;;;;;;;4929707;28;20050;-66
2022/10/26 14:15:32;;;;;;;12.75;4.18;;;;;;;;;;4941855;28;20032;-65
2022/10/26 14:18:00;;;;;;;6.28;3.22;;;;;;;;;;4923490;28;20053;-66
2022/10/26 14:20:28;;;;;;;7.03;3.60;;;;;;;;;;4936974;28;20047;-66
2022/10/26 14:22:55;;;;;;;9.95;3.22;;;;;;;;;;4929545;28;20508;-66
2022/10/26 14:25:25;;;;;;;12.23;3.55;;;;;;;;;;4928208;28;20484;-67
2022/10/26 14:27:53;;;;;;;10.82;3.75;;;;;;;;;;4942761;28;20670;-67
2022/10/26 14:30:30;;;;;;;10.15;3.53;;;;;;;;;;4927160;28;20058;-67
2022/10/26 14:32:57;;;;;;;12.80;3.53;;;;;;;;;;4943176;28;20055;-65
2022/10/26 14:35:26;;;;;;;7.15;3.10;;;;;;;;;;4928402;28;20081;-66
2022/10/26 14:37:56;;;;;;;6.68;2.60;;;;;;;;;;4928885;28;20066;-64
2022/10/26 14:40:25;;;;;;;5.70;2.85;;;;;;;;;;4927168;28;20086;-67
2022/10/26 14:42:54;;;;;;;6.53;2.90;;;;;;;;;;4942924;28;20043;-66
2022/10/26 14:45:24;;;;;;;8.23;2.38;;;;;;;;;;4927957;28;20040;-66
2022/10/26 14:47:50;;;;;;;10.00;2.40;;;;;;;;;;4928751;28;20035;-65